Time;durP1;ratioP1;P1;durP2;ratioP2;P2;SDS_P1;SDS_P2;PMS_P1;PMS_P2;Temp;Humidity;BMP_temperature;BMP_pressure;BME280_temperature;BME280_humidity;BME280_pressure;Samples;Min_cycle;Max_cycle;Signal;HPM_P1;HPM_P2
2023/08/02 00:00:33;;;;;;;5.63;1.95;;;16.70;99.90;;;;;;5044307;28;20045;-56
2023/08/02 00:02:59;;;;;;;6.70;1.92;;;16.70;99.90;;;;;;5041693;28;20040;-55
2023/08/02 00:05:25;;;;;;;6.20;2.42;;;16.70;99.90;;;;;;5045345;28;20463;-52
2023/08/02 00:07:51;;;;;;;7.38;2.20;;;16.70;99.90;;;;;;5029299;28;20458;-55
2023/08/02 00:10:16;;;;;;;4.80;2.10;;;16.70;99.90;;;;;;5058787;28;20504;-55
2023/08/02 00:12:42;;;;;;;5.95;1.92;;;16.70;99.90;;;;;;5042599;28;20450;-54
2023/08/02 00:15:08;;;;;;;4.18;2.05;;;16.70;99.90;;;;;;5046275;28;20367;-54
2023/08/02 00:17:34;;;;;;;9.98;2.33;;;16.70;99.90;;;;;;5043830;28;20094;-54
2023/08/02 00:20:00;;;;;;;3.28;1.85;;;16.70;99.90;;;;;;5040347;28;20036;-54
2023/08/02 00:22:25;;;;;;;7.35;2.53;;;16.60;99.90;;;;;;5061281;28;20387;-53
2023/08/02 00:24:51;;;;;;;7.93;2.38;;;16.60;99.90;;;;;;5044223;28;20115;-54
2023/08/02 00:27:17;;;;;;;6.18;2.75;;;16.70;99.90;;;;;;5026593;28;20127;-55
2023/08/02 00:29:42;;;;;;;5.75;2.75;;;16.60;99.90;;;;;;5016038;28;20101;-55
2023/08/02 00:32:08;;;;;;;5.20;2.92;;;16.70;99.90;;;;;;5038409;28;20495;-54
2023/08/02 00:34:34;;;;;;;9.43;3.08;;;16.60;99.90;;;;;;5051342;28;20048;-54
2023/08/02 00:37:01;;;;;;;5.13;2.28;;;16.60;99.90;;;;;;5063457;28;20479;-56
2023/08/02 00:39:27;;;;;;;8.93;2.80;;;16.60;99.90;;;;;;5063089;28;20040;-53
2023/08/02 00:41:53;;;;;;;3.20;2.45;;;16.60;99.90;;;;;;5039044;28;20041;-52
2023/08/02 00:44:18;;;;;;;7.30;3.17;;;16.60;99.90;;;;;;5032063;28;20039;-51
2023/08/02 00:46:44;;;;;;;8.50;3.00;;;16.60;99.90;;;;;;5042296;28;20098;-53
2023/08/02 00:49:10;;;;;;;8.27;3.25;;;16.60;99.90;;;;;;5064358;28;20036;-52
2023/08/02 00:51:36;;;;;;;6.90;3.40;;;16.60;99.90;;;;;;5061498;28;20036;-54
2023/08/02 00:54:03;;;;;;;8.82;4.07;;;16.60;99.90;;;;;;5045708;28;20229;-55
2023/08/02 00:56:30;;;;;;;10.45;3.55;;;16.60;99.90;;;;;;5047619;28;20516;-55
2023/08/02 00:58:55;;;;;;;8.68;4.00;;;16.60;99.90;;;;;;5050864;28;20081;-53
2023/08/02 01:01:21;;;;;;;6.40;3.75;;;16.60;99.90;;;;;;5049963;28;20787;-54
2023/08/02 01:03:47;;;;;;;8.57;4.18;;;16.60;99.90;;;;;;5046672;28;20048;-54
2023/08/02 01:06:34;;;;;;;9.52;3.80;;;16.60;99.90;;;;;;5027928;28;20032;-53
2023/08/02 01:09:09;;;;;;;8.55;4.00;;;16.60;99.90;;;;;;5043472;28;20409;-54
2023/08/02 01:11:54;;;;;;;9.50;4.05;;;16.60;99.90;;;;;;5041074;28;20098;-55
2023/08/02 01:14:20;;;;;;;9.07;3.90;;;16.60;99.90;;;;;;5027145;28;20048;-52
2023/08/02 01:16:49;;;;;;;8.73;3.42;;;16.60;99.90;;;;;;5033028;28;20119;-56
2023/08/02 01:19:20;;;;;;;8.52;4.35;;;16.60;99.90;;;;;;5048262;28;20051;-55
2023/08/02 01:21:46;;;;;;;8.00;3.97;;;16.60;99.90;;;;;;5045092;28;20032;-55
2023/08/02 01:24:12;;;;;;;7.88;4.43;;;16.60;99.90;;;;;;5064836;28;20514;-53
2023/08/02 01:26:42;;;;;;;11.90;4.75;;;16.60;99.90;;;;;;5045386;28;20344;-55
2023/08/02 01:29:15;;;;;;;7.93;4.80;;;16.60;99.90;;;;;;5046333;28;20392;-55
2023/08/02 01:31:42;;;;;;;7.75;3.85;;;16.60;99.90;;;;;;5064159;28;20052;-54
2023/08/02 01:34:09;;;;;;;9.85;4.65;;;16.60;99.90;;;;;;5051921;28;20048;-54
2023/08/02 01:36:34;;;;;;;9.27;4.53;;;16.60;99.90;;;;;;5065534;28;20036;-52
2023/08/02 01:39:00;;;;;;;8.27;4.22;;;16.60;99.90;;;;;;5046314;28;20586;-55
2023/08/02 01:41:26;;;;;;;10.73;4.95;;;16.60;99.90;;;;;;5043518;28;20052;-55
2023/08/02 01:43:51;;;;;;;11.40;5.13;;;16.60;99.90;;;;;;5043281;28;20132;-55
2023/08/02 01:46:17;;;;;;;8.70;5.35;;;16.60;99.90;;;;;;5043417;28;20427;-55
2023/08/02 01:48:43;;;;;;;10.80;5.80;;;16.50;99.90;;;;;;5043238;28;20072;-56
2023/08/02 01:51:09;;;;;;;7.30;5.30;;;16.50;99.90;;;;;;5066744;28;20061;-52
2023/08/02 01:53:34;;;;;;;11.55;5.85;;;16.50;99.90;;;;;;5062758;28;20202;-54
2023/08/02 01:56:00;;;;;;;12.07;6.22;;;16.50;99.90;;;;;;5030569;28;20040;-54
2023/08/02 01:58:26;;;;;;;9.32;6.13;;;16.50;99.90;;;;;;5046904;28;20033;-54
2023/08/02 02:00:51;;;;;;;12.05;6.22;;;16.50;99.90;;;;;;5060013;28;20769;-55
2023/08/02 02:03:17;;;;;;;14.55;5.72;;;16.40;99.90;;;;;;5039074;28;20060;-56
2023/08/02 02:05:52;;;;;;;10.45;5.55;;;16.40;99.90;;;;;;5047292;28;20040;-55
2023/08/02 02:08:18;;;;;;;12.05;5.82;;;16.50;99.90;;;;;;5045403;28;20522;-54
2023/08/02 02:10:54;;;;;;;10.73;5.45;;;16.40;99.90;;;;;;5046271;28;20037;-54
2023/08/02 02:13:22;;;;;;;7.82;5.30;;;16.50;99.90;;;;;;5032583;28;20036;-53
2023/08/02 02:15:48;;;;;;;7.38;5.10;;;16.40;99.90;;;;;;5025946;28;20033;-53
2023/08/02 02:18:13;;;;;;;9.07;5.15;;;16.50;99.90;;;;;;5048062;28;20542;-54
2023/08/02 02:20:39;;;;;;;10.18;5.53;;;16.40;99.90;;;;;;5042693;28;20040;-54
2023/08/02 02:23:05;;;;;;;8.85;5.20;;;16.50;99.90;;;;;;5046715;28;20139;-55
2023/08/02 02:25:31;;;;;;;7.88;5.30;;;16.40;99.90;;;;;;5047308;28;20064;-54
2023/08/02 02:27:56;;;;;;;8.27;4.53;;;16.40;99.90;;;;;;5029691;28;20033;-53
2023/08/02 02:30:22;;;;;;;8.50;5.10;;;16.40;99.90;;;;;;5055889;28;20051;-54
2023/08/02 02:32:48;;;;;;;9.57;5.38;;;16.40;99.90;;;;;;5042875;28;20090;-53
2023/08/02 02:35:14;;;;;;;9.40;6.25;;;16.40;99.90;;;;;;5028575;28;20358;-53
2023/08/02 02:37:41;;;;;;;8.13;5.03;;;16.40;99.90;;;;;;5049542;28;20044;-53
2023/08/02 02:40:08;;;;;;;9.52;5.40;;;16.40;99.90;;;;;;5030171;28;20234;-55
2023/08/02 02:42:38;;;;;;;7.55;5.00;;;16.40;99.90;;;;;;5045164;28;20045;-54
2023/08/02 02:45:04;;;;;;;11.32;5.55;;;16.40;99.90;;;;;;5061005;28;20028;-54
2023/08/02 02:47:30;;;;;;;13.05;5.97;;;16.40;99.90;;;;;;5043383;28;20044;-54
2023/08/02 02:49:56;;;;;;;10.43;5.57;;;16.40;99.90;;;;;;5022113;28;20051;-55
2023/08/02 02:52:23;;;;;;;13.98;6.00;;;16.40;99.90;;;;;;5041229;28;20155;-53
2023/08/02 02:54:49;;;;;;;8.68;4.80;;;16.40;99.90;;;;;;5047604;28;20562;-56
2023/08/02 02:57:16;;;;;;;10.68;5.30;;;16.40;99.90;;;;;;5048149;28;20124;-54
2023/08/02 02:59:42;;;;;;;16.27;6.07;;;16.40;99.90;;;;;;5032316;28;20040;-54
2023/08/02 03:02:08;;;;;;;14.68;6.70;;;16.40;99.90;;;;;;5036394;28;20102;-55
2023/08/02 03:04:33;;;;;;;9.77;5.78;;;16.30;99.90;;;;;;5028214;28;20040;-55
2023/08/02 03:06:59;;;;;;;8.02;5.32;;;16.30;99.90;;;;;;5022450;28;20059;-54
2023/08/02 03:09:25;;;;;;;11.05;6.18;;;16.30;99.90;;;;;;5044776;28;20515;-54
2023/08/02 03:11:51;;;;;;;11.07;5.75;;;16.30;99.90;;;;;;5046133;28;20032;-56
2023/08/02 03:14:16;;;;;;;9.80;5.25;;;16.30;99.90;;;;;;5023333;28;20095;-55
2023/08/02 03:16:45;;;;;;;12.10;5.35;;;16.30;99.90;;;;;;5041496;28;20033;-56
2023/08/02 03:19:11;;;;;;;13.77;5.90;;;16.30;99.90;;;;;;5010082;28;20515;-54
2023/08/02 03:21:44;;;;;;;10.65;4.93;;;16.30;99.90;;;;;;5035621;28;20123;-55
2023/08/02 03:24:10;;;;;;;10.48;4.97;;;16.30;99.90;;;;;;5043541;28;20041;-56
2023/08/02 03:26:36;;;;;;;10.02;5.00;;;16.20;99.90;;;;;;5056439;28;20035;-56
2023/08/02 03:29:19;;;;;;;11.88;5.53;;;16.20;99.90;;;;;;5043228;28;20041;-55
2023/08/02 03:31:48;;;;;;;12.57;5.70;;;16.20;99.90;;;;;;5045576;28;20089;-55
2023/08/02 03:34:15;;;;;;;13.13;5.35;;;16.20;99.90;;;;;;5042870;28;20041;-56
2023/08/02 03:36:43;;;;;;;11.30;4.88;;;16.20;99.90;;;;;;5026981;28;20052;-55
2023/08/02 03:39:12;;;;;;;16.10;5.32;;;16.20;99.90;;;;;;5043066;28;20037;-56
2023/08/02 03:41:38;;;;;;;13.93;5.43;;;16.20;99.90;;;;;;5045026;28;20101;-56
2023/08/02 03:44:04;;;;;;;12.13;5.20;;;16.20;99.90;;;;;;5029578;28;20044;-55
2023/08/02 03:46:29;;;;;;;13.88;5.95;;;16.20;99.90;;;;;;5048164;28;20044;-52
2023/08/02 03:48:55;;;;;;;12.10;5.22;;;16.20;99.90;;;;;;5008019;28;20051;-55
2023/08/02 03:51:21;;;;;;;14.82;5.35;;;16.20;99.90;;;;;;5040920;28;20048;-55
2023/08/02 03:53:46;;;;;;;12.20;5.90;;;16.20;99.90;;;;;;5040116;28;20411;-53
2023/08/02 03:56:12;;;;;;;17.33;5.68;;;16.20;99.90;;;;;;5042827;28;20040;-53
2023/08/02 03:58:38;;;;;;;18.42;5.97;;;16.10;99.90;;;;;;5008403;28;20041;-53
2023/08/02 04:01:04;;;;;;;18.38;6.45;;;16.10;99.90;;;;;;5039460;28;20194;-54
2023/08/02 04:03:29;;;;;;;20.10;6.50;;;16.10;99.90;;;;;;5045059;28;20043;-52
2023/08/02 04:05:55;;;;;;;16.30;6.70;;;16.10;99.90;;;;;;5045584;28;20388;-53
2023/08/02 04:08:21;;;;;;;18.20;6.78;;;16.10;99.90;;;;;;5035047;28;20028;-56
2023/08/02 04:10:46;;;;;;;17.10;6.68;;;16.10;99.90;;;;;;5056717;28;20032;-53
2023/08/02 04:13:12;;;;;;;19.90;7.00;;;16.10;99.90;;;;;;5040604;28;20032;-55
2023/08/02 04:15:38;;;;;;;18.73;7.30;;;16.10;99.90;;;;;;5019643;28;20097;-53
2023/08/02 04:18:03;;;;;;;20.38;7.85;;;16.10;99.90;;;;;;5038538;28;20089;-54
2023/08/02 04:20:30;;;;;;;17.17;7.78;;;16.10;99.90;;;;;;5020926;28;20044;-55
2023/08/02 04:22:56;;;;;;;17.33;7.25;;;16.10;99.90;;;;;;5051116;28;20498;-54
2023/08/02 04:25:22;;;;;;;16.77;7.32;;;16.10;99.90;;;;;;5024889;28;20068;-55
2023/08/02 04:27:47;;;;;;;18.77;7.15;;;16.10;99.90;;;;;;5027741;28;20051;-56
2023/08/02 04:30:13;;;;;;;17.88;6.60;;;16.10;99.90;;;;;;5051722;28;20040;-52
2023/08/02 04:32:39;;;;;;;21.70;7.43;;;16.10;99.90;;;;;;5041738;28;20442;-54
2023/08/02 04:35:05;;;;;;;15.57;7.13;;;16.10;99.90;;;;;;5042040;28;20071;-52
2023/08/02 04:37:31;;;;;;;20.30;8.50;;;16.10;99.90;;;;;;5019504;28;20053;-55
2023/08/02 04:39:56;;;;;;;19.80;7.93;;;16.00;99.90;;;;;;5031104;28;20033;-56
2023/08/02 04:42:25;;;;;;;25.08;8.82;;;16.00;99.90;;;;;;5022662;28;20507;-52
2023/08/02 04:44:50;;;;;;;15.43;6.80;;;16.00;99.90;;;;;;5036916;28;20036;-55
2023/08/02 04:47:16;;;;;;;21.55;7.80;;;16.00;99.90;;;;;;5045371;28;20515;-52
2023/08/02 04:49:48;;;;;;;22.67;8.05;;;16.00;99.90;;;;;;5023708;28;20119;-52
2023/08/02 04:52:13;;;;;;;19.98;8.00;;;16.00;99.90;;;;;;5038337;28;20080;-53
2023/08/02 04:54:39;;;;;;;23.08;8.65;;;16.00;99.90;;;;;;5027455;28;20526;-54
2023/08/02 04:57:05;;;;;;;19.83;7.53;;;16.00;99.90;;;;;;5041842;28;20127;-52
2023/08/02 04:59:31;;;;;;;14.10;7.00;;;16.00;99.90;;;;;;5028960;28;20116;-51
2023/08/02 05:01:56;;;;;;;15.70;7.40;;;16.00;99.90;;;;;;5058979;28;20128;-51
2023/08/02 05:04:22;;;;;;;15.20;7.50;;;16.00;99.90;;;;;;5063232;28;20230;-52
2023/08/02 05:06:48;;;;;;;19.83;7.25;;;15.90;99.90;;;;;;5027776;28;20773;-53
2023/08/02 05:09:13;;;;;;;20.08;8.50;;;15.90;99.90;;;;;;5029289;28;20086;-52
2023/08/02 05:11:40;;;;;;;21.88;8.40;;;15.90;99.90;;;;;;5042596;28;20052;-52
2023/08/02 05:14:06;;;;;;;21.50;8.77;;;15.90;99.90;;;;;;5041811;28;20468;-55
2023/08/02 05:16:31;;;;;;;18.67;7.70;;;15.90;99.90;;;;;;5011126;28;20040;-55
2023/08/02 05:18:57;;;;;;;18.85;7.65;;;16.00;99.90;;;;;;5045987;28;20076;-53
2023/08/02 05:21:23;;;;;;;19.20;8.55;;;15.90;99.90;;;;;;5036819;28;20517;-51
2023/08/02 05:23:49;;;;;;;16.67;8.05;;;15.90;99.90;;;;;;5032787;28;20090;-52
2023/08/02 05:26:15;;;;;;;18.00;7.97;;;16.00;99.90;;;;;;5026174;28;20028;-54
2023/08/02 05:28:41;;;;;;;15.55;7.78;;;16.00;99.90;;;;;;5040554;28;20036;-55
2023/08/02 05:31:11;;;;;;;16.05;7.97;;;16.00;99.90;;;;;;5040773;28;20051;-54
2023/08/02 05:33:37;;;;;;;18.63;8.85;;;16.00;99.90;;;;;;5046482;28;20033;-55
2023/08/02 05:36:02;;;;;;;15.98;8.52;;;16.00;99.90;;;;;;5025983;28;20044;-52
2023/08/02 05:38:30;;;;;;;17.90;8.30;;;16.00;99.90;;;;;;5029453;28;20045;-52
2023/08/02 05:41:02;;;;;;;16.40;8.15;;;16.00;99.90;;;;;;5033084;28;20479;-54
2023/08/02 05:43:29;;;;;;;15.88;7.68;;;16.10;99.90;;;;;;5048515;28;20479;-55
2023/08/02 05:45:55;;;;;;;15.85;8.48;;;16.20;99.90;;;;;;5045771;28;20040;-52
2023/08/02 05:48:21;;;;;;;14.57;7.88;;;16.20;99.90;;;;;;5048324;28;20036;-51
2023/08/02 05:50:47;;;;;;;18.30;8.75;;;16.10;99.90;;;;;;5028775;28;20052;-54
2023/08/02 05:53:13;;;;;;;17.33;8.95;;;16.10;99.90;;;;;;5013184;28;20131;-54
2023/08/02 05:55:38;;;;;;;15.38;7.72;;;16.10;99.90;;;;;;5043575;28;20459;-55
2023/08/02 05:58:04;;;;;;;16.85;8.18;;;16.10;99.90;;;;;;5040212;28;20044;-54
2023/08/02 06:00:30;;;;;;;17.65;8.30;;;16.20;99.90;;;;;;5026423;28;20507;-54
2023/08/02 06:02:56;;;;;;;14.70;7.50;;;16.20;99.90;;;;;;5024952;28;20055;-54
2023/08/02 06:05:22;;;;;;;19.40;9.02;;;16.30;99.90;;;;;;5029464;28;20051;-54
2023/08/02 06:07:47;;;;;;;14.52;8.05;;;16.30;99.90;;;;;;5028928;28;20514;-54
2023/08/02 06:10:13;;;;;;;12.55;7.85;;;16.40;99.90;;;;;;5045236;28;20060;-54
2023/08/02 06:12:39;;;;;;;13.77;8.13;;;16.30;99.90;;;;;;5031077;28;20079;-53
2023/08/02 06:15:05;;;;;;;13.43;8.15;;;16.40;99.90;;;;;;5026949;28;20049;-53
2023/08/02 06:17:31;;;;;;;22.15;9.55;;;16.40;99.90;;;;;;5059454;28;20369;-55
2023/08/02 06:19:56;;;;;;;17.38;8.32;;;16.40;99.90;;;;;;5045635;28;20083;-54
2023/08/02 06:22:22;;;;;;;19.45;8.30;;;16.40;99.90;;;;;;5066203;28;20041;-54
2023/08/02 06:24:48;;;;;;;18.83;9.38;;;16.40;99.90;;;;;;5044162;28;20045;-54
2023/08/02 06:27:13;;;;;;;16.20;8.05;;;16.50;99.90;;;;;;5045092;28;20032;-55
2023/08/02 06:29:39;;;;;;;16.50;8.07;;;16.50;99.90;;;;;;5021138;28;20028;-54
2023/08/02 06:32:05;;;;;;;14.70;7.22;;;16.50;99.90;;;;;;5026766;28;20036;-54
2023/08/02 06:34:31;;;;;;;12.95;7.82;;;16.60;99.90;;;;;;5042965;28;20113;-55
2023/08/02 06:36:57;;;;;;;15.85;8.13;;;16.60;99.90;;;;;;5025062;28;20428;-55
2023/08/02 06:39:22;;;;;;;15.95;7.85;;;16.60;99.90;;;;;;5046439;28;20076;-56
2023/08/02 06:41:48;;;;;;;14.77;8.13;;;16.60;99.90;;;;;;5045498;28;20036;-56
2023/08/02 06:44:14;;;;;;;17.13;8.32;;;16.60;99.90;;;;;;5039832;28;20037;-56
2023/08/02 06:46:43;;;;;;;16.70;7.70;;;16.60;99.90;;;;;;5041793;28;20047;-55
2023/08/02 06:49:08;;;;;;;16.55;8.00;;;16.60;99.90;;;;;;5045559;28;20044;-55
2023/08/02 06:51:34;;;;;;;12.70;7.13;;;16.60;99.90;;;;;;5043129;28;20041;-56
2023/08/02 06:54:00;;;;;;;12.15;7.65;;;16.60;99.90;;;;;;5059302;28;20037;-54
2023/08/02 06:56:25;;;;;;;15.90;8.82;;;16.60;99.90;;;;;;5042770;28;20044;-56
2023/08/02 06:58:51;;;;;;;13.00;7.13;;;16.60;99.90;;;;;;5028183;28;20062;-53
2023/08/02 07:01:19;;;;;;;19.30;8.35;;;16.70;99.90;;;;;;5024198;28;20469;-55
2023/08/02 07:03:46;;;;;;;10.93;7.43;;;16.70;99.90;;;;;;5043747;28;20074;-55
2023/08/02 07:06:14;;;;;;;15.38;6.80;;;16.80;99.90;;;;;;5060277;28;20242;-55
2023/08/02 07:08:41;;;;;;;15.55;7.13;;;16.80;99.90;;;;;;5041453;28;20043;-55
2023/08/02 07:11:07;;;;;;;16.20;7.38;;;16.80;99.90;;;;;;5043952;28;20603;-56
2023/08/02 07:13:33;;;;;;;14.05;6.75;;;16.80;99.90;;;;;;5032105;28;20105;-56
2023/08/02 07:16:00;;;;;;;15.02;7.00;;;16.80;99.90;;;;;;5039725;28;20520;-52
2023/08/02 07:18:25;;;;;;;13.93;6.47;;;16.80;99.90;;;;;;5042977;28;20568;-52
2023/08/02 07:20:51;;;;;;;12.40;6.57;;;16.80;99.90;;;;;;5044442;28;20028;-54
2023/08/02 07:23:17;;;;;;;10.25;6.65;;;16.70;99.90;;;;;;5038286;28;20033;-55
2023/08/02 07:25:42;;;;;;;12.55;6.85;;;16.70;99.90;;;;;;5028324;28;20399;-56
2023/08/02 07:28:08;;;;;;;12.57;6.63;;;16.70;99.90;;;;;;5048027;28;20068;-54
2023/08/02 07:30:34;;;;;;;16.27;6.72;;;16.70;99.90;;;;;;5040559;28;20048;-55
2023/08/02 07:33:00;;;;;;;14.07;7.07;;;16.70;99.90;;;;;;5042787;28;20094;-54
2023/08/02 07:35:25;;;;;;;15.13;6.45;;;16.70;99.90;;;;;;5048348;28;20491;-55
2023/08/02 07:37:51;;;;;;;17.80;7.13;;;16.60;99.90;;;;;;5045224;28;20114;-55
2023/08/02 07:40:17;;;;;;;13.52;6.63;;;16.70;99.90;;;;;;5034469;28;20040;-56
2023/08/02 07:42:42;;;;;;;11.80;6.90;;;16.70;99.90;;;;;;5051446;28;20048;-55
2023/08/02 07:45:10;;;;;;;11.98;6.80;;;16.70;99.90;;;;;;5025478;28;20036;-52
2023/08/02 07:47:39;;;;;;;10.40;6.60;;;16.70;99.90;;;;;;5066005;28;20044;-53
2023/08/02 07:50:05;;;;;;;11.55;5.75;;;16.60;99.90;;;;;;5040898;28;20129;-55
2023/08/02 07:52:32;;;;;;;10.27;5.93;;;16.50;99.90;;;;;;5043099;28;20071;-55
2023/08/02 07:54:57;;;;;;;9.48;6.20;;;16.60;99.90;;;;;;5046725;28;20474;-55
2023/08/02 07:57:25;;;;;;;15.23;6.72;;;16.50;99.90;;;;;;5041260;28;20053;-53
2023/08/02 07:59:52;;;;;;;12.07;5.78;;;16.60;99.90;;;;;;5041481;28;20045;-53
2023/08/02 08:02:21;;;;;;;11.30;5.20;;;16.50;99.90;;;;;;5059978;28;20499;-53
2023/08/02 08:04:47;;;;;;;11.32;6.30;;;16.50;99.90;;;;;;5038703;28;20127;-54
2023/08/02 08:07:30;;;;;;;15.02;7.05;;;16.50;99.90;;;;;;5050279;28;20067;-52
2023/08/02 08:09:55;;;;;;;12.25;6.47;;;16.50;99.90;;;;;;5041055;28;20385;-52
2023/08/02 08:12:21;;;;;;;10.02;5.65;;;16.40;99.90;;;;;;5045700;28;20044;-54
2023/08/02 08:14:47;;;;;;;11.05;5.68;;;16.40;99.90;;;;;;5044762;28;20044;-53
2023/08/02 08:17:12;;;;;;;12.43;5.90;;;16.30;99.90;;;;;;5042106;28;20044;-55
2023/08/02 08:19:38;;;;;;;9.60;4.95;;;16.30;99.90;;;;;;5028865;28;20036;-55
2023/08/02 08:22:05;;;;;;;10.63;5.60;;;16.30;99.90;;;;;;5042983;28;20503;-55
2023/08/02 08:24:30;;;;;;;9.48;5.28;;;16.20;99.90;;;;;;5041162;28;20040;-55
2023/08/02 08:26:56;;;;;;;9.40;4.80;;;16.10;99.90;;;;;;5045454;28;20384;-54
2023/08/02 08:29:22;;;;;;;8.35;4.80;;;16.10;99.90;;;;;;5028550;28;20041;-53
2023/08/02 08:31:47;;;;;;;10.23;4.88;;;16.00;99.90;;;;;;5041651;28;20101;-52
2023/08/02 08:34:13;;;;;;;10.27;4.68;;;16.00;99.90;;;;;;5027445;28;20491;-54
2023/08/02 08:36:39;;;;;;;9.98;4.75;;;16.00;99.90;;;;;;5038709;28;20045;-55
2023/08/02 08:39:05;;;;;;;10.50;5.00;;;16.00;99.90;;;;;;5044608;28;20109;-55
2023/08/02 08:41:31;;;;;;;8.88;5.00;;;16.00;99.90;;;;;;5025882;28;20037;-52
2023/08/02 08:44:00;;;;;;;11.05;6.30;;;16.00;99.90;;;;;;5030105;28;20553;-52
2023/08/02 08:46:29;;;;;;;12.82;5.40;;;16.00;99.90;;;;;;5030941;28;20403;-56
2023/08/02 08:48:55;;;;;;;10.30;5.30;;;16.10;99.90;;;;;;5025012;28;20052;-52
2023/08/02 08:51:22;;;;;;;8.55;4.85;;;16.10;99.90;;;;;;5046504;28;20029;-54
2023/08/02 08:53:49;;;;;;;7.05;4.95;;;16.10;99.90;;;;;;5028471;28;20547;-52
2023/08/02 08:56:17;;;;;;;10.43;5.32;;;16.00;99.90;;;;;;5049618;28;20495;-54
2023/08/02 08:58:43;;;;;;;12.75;6.18;;;16.00;99.90;;;;;;5049142;28;20047;-54
2023/08/02 09:01:10;;;;;;;8.65;5.00;;;16.10;99.90;;;;;;5024151;28;20492;-52
2023/08/02 09:03:35;;;;;;;13.63;5.88;;;16.10;99.90;;;;;;5046155;28;20047;-55
2023/08/02 09:06:02;;;;;;;8.88;5.20;;;16.10;99.90;;;;;;5064179;28;20399;-55
2023/08/02 09:08:29;;;;;;;10.20;5.78;;;16.10;99.90;;;;;;5033130;28;20047;-53
2023/08/02 09:10:54;;;;;;;9.18;5.68;;;16.00;99.90;;;;;;5045824;28;20055;-53
2023/08/02 09:13:25;;;;;;;9.35;5.45;;;16.10;99.90;;;;;;5043111;28;20032;-53
2023/08/02 09:16:11;;;;;;;10.25;5.05;;;16.00;99.90;;;;;;5040623;28;20061;-52
2023/08/02 09:18:45;;;;;;;7.90;5.45;;;16.10;99.90;;;;;;5042715;28;20684;-53
2023/08/02 09:21:14;;;;;;;10.77;5.45;;;16.10;99.90;;;;;;5050933;28;20029;-52
2023/08/02 09:23:55;;;;;;;8.55;5.82;;;16.10;99.90;;;;;;5060010;28;20115;-52
2023/08/02 09:26:21;;;;;;;9.98;6.65;;;16.10;99.90;;;;;;5039337;28;20396;-52
2023/08/02 09:29:00;;;;;;;13.55;6.28;;;16.10;99.90;;;;;;5037763;28;20311;-51
2023/08/02 09:31:27;;;;;;;9.57;6.95;;;16.10;99.90;;;;;;5027832;28;20106;-55
2023/08/02 09:33:54;;;;;;;8.82;6.65;;;16.10;99.90;;;;;;5049009;28;20048;-55
2023/08/02 09:36:33;;;;;;;9.13;6.32;;;16.20;99.90;;;;;;5028659;28;20036;-53
2023/08/02 09:39:16;;;;;;;10.05;6.88;;;16.20;99.90;;;;;;5043173;28;20052;-55
2023/08/02 09:41:42;;;;;;;8.52;6.20;;;16.30;99.90;;;;;;5064682;28;20043;-52
2023/08/02 09:44:08;;;;;;;10.48;7.53;;;16.30;99.90;;;;;;5047371;28;20383;-55
2023/08/02 09:46:35;;;;;;;8.90;7.55;;;16.30;99.90;;;;;;5041535;28;20108;-54
2023/08/02 09:49:15;;;;;;;9.68;7.72;;;16.30;99.90;;;;;;5043619;28;20036;-54
2023/08/02 09:51:43;;;;;;;10.20;6.60;;;16.30;99.90;;;;;;5045081;28;20119;-54
2023/08/02 09:54:10;;;;;;;9.07;6.82;;;16.30;99.90;;;;;;5026666;28;20142;-55
2023/08/02 09:56:38;;;;;;;8.93;7.55;;;16.30;99.90;;;;;;5050470;28;20050;-53
2023/08/02 09:59:05;;;;;;;7.35;6.18;;;16.30;99.90;;;;;;5049931;28;20059;-55
2023/08/02 10:01:32;;;;;;;8.10;6.53;;;16.30;99.90;;;;;;5044208;28;20052;-55
2023/08/02 10:04:02;;;;;;;9.90;6.50;;;16.40;99.90;;;;;;5039930;28;20044;-55
2023/08/02 10:06:34;;;;;;;11.18;7.63;;;16.50;99.90;;;;;;5044789;28;20301;-55
2023/08/02 10:09:07;;;;;;;7.55;6.40;;;16.50;99.90;;;;;;5044494;28;20445;-53
2023/08/02 10:11:36;;;;;;;9.23;6.85;;;16.50;99.90;;;;;;5063352;28;20040;-55
2023/08/02 10:14:03;;;;;;;10.75;6.30;;;16.50;99.90;;;;;;5036988;28;20119;-55
2023/08/02 10:16:30;;;;;;;6.65;5.60;;;16.50;99.90;;;;;;5045474;28;20048;-54
2023/08/02 10:18:57;;;;;;;5.90;5.00;;;16.50;99.90;;;;;;5046797;28;20041;-55
2023/08/02 10:21:23;;;;;;;8.90;5.43;;;16.50;99.90;;;;;;5066389;28;20040;-55
2023/08/02 10:23:49;;;;;;;6.97;5.55;;;16.50;99.90;;;;;;5064694;28;20428;-54
2023/08/02 10:26:16;;;;;;;7.55;5.13;;;16.50;99.90;;;;;;5038304;28;20036;-52
2023/08/02 10:28:42;;;;;;;7.20;5.70;;;16.50;99.90;;;;;;5045345;28;20080;-54
2023/08/02 10:31:10;;;;;;;9.23;5.00;;;16.60;99.90;;;;;;5045459;28;20103;-55
2023/08/02 10:33:36;;;;;;;6.50;4.90;;;16.60;99.90;;;;;;5046294;28;20036;-55
2023/08/02 10:36:04;;;;;;;5.28;4.13;;;16.60;99.90;;;;;;5026143;28;20051;-55
2023/08/02 10:38:38;;;;;;;6.93;4.50;;;16.60;99.90;;;;;;5044860;28;20052;-54
2023/08/02 10:41:07;;;;;;;5.95;3.80;;;16.60;99.90;;;;;;5043226;28;20078;-52
2023/08/02 10:43:33;;;;;;;5.97;3.88;;;16.60;99.90;;;;;;5046577;28;20120;-55
2023/08/02 10:46:16;;;;;;;5.35;3.80;;;16.60;99.90;;;;;;5042363;28;20033;-53
2023/08/02 10:48:42;;;;;;;4.88;3.40;;;16.60;99.90;;;;;;5036804;28;20159;-55
2023/08/02 10:51:32;;;;;;;4.13;3.50;;;16.60;99.90;;;;;;5026531;28;20142;-53
2023/08/02 10:54:22;;;;;;;5.82;3.22;;;16.60;99.90;;;;;;5018528;28;20053;-53
2023/08/02 10:56:58;;;;;;;4.00;2.33;;;16.60;99.90;;;;;;5042875;28;20596;-55
2023/08/02 10:59:24;;;;;;;3.70;2.92;;;16.60;99.90;;;;;;5020412;28;20048;-55
2023/08/02 11:02:01;;;;;;;3.75;2.65;;;16.60;99.90;;;;;;5025463;28;20032;-54
2023/08/02 11:04:28;;;;;;;4.93;3.28;;;16.70;99.90;;;;;;5044006;28;20099;-55
2023/08/02 11:06:55;;;;;;;3.90;2.33;;;16.70;99.90;;;;;;5046352;28;20067;-53
2023/08/02 11:09:30;;;;;;;3.13;2.25;;;16.70;99.90;;;;;;5044859;28;20051;-54
2023/08/02 11:11:56;;;;;;;3.60;2.63;;;16.70;99.90;;;;;;5032172;28;20044;-55
2023/08/02 11:14:26;;;;;;;4.55;2.30;;;16.80;99.90;;;;;;5047010;28;20724;-54
2023/08/02 11:16:52;;;;;;;2.78;2.08;;;16.90;99.90;;;;;;5019996;28;20101;-55
2023/08/02 11:19:18;;;;;;;2.60;2.20;;;17.00;99.90;;;;;;5044027;28;20052;-55
2023/08/02 11:21:59;;;;;;;2.75;2.25;;;17.10;99.90;;;;;;5066559;28;20184;-55
2023/08/02 11:24:25;;;;;;;2.85;2.17;;;17.20;99.90;;;;;;5049204;28;20319;-53
2023/08/02 11:26:56;;;;;;;3.15;2.38;;;17.30;99.90;;;;;;5046230;28;20487;-55
2023/08/02 11:29:22;;;;;;;3.10;2.38;;;17.50;99.90;;;;;;5019720;28;20164;-55
2023/08/02 11:31:48;;;;;;;3.45;2.30;;;17.70;99.90;;;;;;5043071;28;20041;-55
2023/08/02 11:34:18;;;;;;;3.40;2.00;;;17.80;99.90;;;;;;5027234;28;20067;-54
2023/08/02 11:36:48;;;;;;;3.42;2.33;;;18.00;99.90;;;;;;5040149;28;20040;-53
2023/08/02 11:39:18;;;;;;;2.53;2.17;;;18.10;99.90;;;;;;5058407;28;20459;-55
2023/08/02 11:41:44;;;;;;;2.40;2.05;;;18.20;99.90;;;;;;5046625;28;20083;-56
2023/08/02 11:44:17;;;;;;;2.40;2.10;;;18.20;99.90;;;;;;5024437;28;20459;-56
2023/08/02 11:46:44;;;;;;;3.28;2.20;;;18.30;99.90;;;;;;5044657;28;20076;-54
2023/08/02 11:49:09;;;;;;;2.50;2.15;;;18.30;99.90;;;;;;5043593;28;20060;-55
2023/08/02 11:51:40;;;;;;;5.22;2.17;;;18.30;99.90;;;;;;5064037;28;20036;-55
2023/08/02 11:54:06;;;;;;;2.67;2.20;;;18.30;99.90;;;;;;5038763;28;20051;-55
2023/08/02 11:56:32;;;;;;;3.42;2.55;;;18.40;99.90;;;;;;5037897;28;20041;-56
2023/08/02 11:58:58;;;;;;;4.68;3.03;;;18.50;99.90;;;;;;5029450;28;20507;-54
2023/08/02 12:01:24;;;;;;;2.60;2.38;;;18.50;99.90;;;;;;5044412;28;20042;-55
2023/08/02 12:03:57;;;;;;;3.33;3.03;;;18.50;99.90;;;;;;5026452;28;20043;-54
2023/08/02 12:06:24;;;;;;;3.00;2.50;;;18.50;99.90;;;;;;5045160;28;20087;-55
2023/08/02 12:08:57;;;;;;;2.35;2.13;;;18.50;99.90;;;;;;5047560;28;20037;-55
2023/08/02 12:11:26;;;;;;;4.20;2.65;;;18.50;99.90;;;;;;5063311;28;20048;-52
2023/08/02 12:13:52;;;;;;;4.13;2.58;;;18.50;99.90;;;;;;5032837;28;20045;-55
2023/08/02 12:16:18;;;;;;;3.22;2.92;;;18.60;99.90;;;;;;5028102;28;20414;-54
2023/08/02 12:18:55;;;;;;;3.97;3.33;;;18.60;99.90;;;;;;5035395;28;20049;-54
2023/08/02 12:21:35;;;;;;;6.93;3.72;;;18.60;99.90;;;;;;5060580;28;20089;-54
2023/08/02 12:24:12;;;;;;;3.75;3.35;;;18.80;99.90;;;;;;5043177;28;20511;-55
2023/08/02 12:26:39;;;;;;;4.57;3.13;;;18.80;99.90;;;;;;5064694;28;20033;-55
2023/08/02 12:29:05;;;;;;;3.97;3.58;;;19.00;99.90;;;;;;5034130;28;20700;-55
2023/08/02 12:31:45;;;;;;;4.30;3.90;;;19.10;99.90;;;;;;5050517;28;20075;-55
2023/08/02 12:34:11;;;;;;;4.95;4.55;;;19.30;99.90;;;;;;5048783;28;20036;-55
2023/08/02 12:36:37;;;;;;;5.55;4.20;;;19.60;99.90;;;;;;5051822;28;20048;-55
2023/08/02 12:39:04;;;;;;;4.53;4.13;;;19.90;99.90;;;;;;5066856;28;20053;-56
2023/08/02 12:41:30;;;;;;;4.25;3.80;;;20.00;99.90;;;;;;5056375;28;20040;-56